Terminal Aerodrome Forecast
Issued by NWS Spokane, WA

Home | Current Version | Previous Version | Text Only | Print | Product List | Glossary On
Versions: 1 2 3 4 5 6 7 8 9 10 11 12
000
FTUS46 KOTX 201723
TAFGEG
TAF
KGEG 201723Z 2018/2118 22020G26KT P6SM FEW050 SCT180
     FM210300 23011KT P6SM FEW200
     FM210900 19008KT P6SM SCT200
     FM211700 21008KT P6SM SCT200=

USA.gov is the U.S. government's official web portal to all federal, state and local government web resources and services.